createdAt,value
2022-07-26T00:02:07.120Z,99483.28
2022-07-26T00:04:35.426Z,99486.06
2022-07-26T00:07:03.311Z,99480.84
2022-07-26T00:09:31.261Z,99483.09
2022-07-26T00:11:59.489Z,99480.44
2022-07-26T00:14:27.438Z,99488.44
2022-07-26T00:16:55.517Z,99484.00
2022-07-26T00:19:23.933Z,99479.41
2022-07-26T00:22:29.283Z,99486.50
2022-07-26T00:24:57.511Z,99482.81
2022-07-26T00:27:25.723Z,99479.47
2022-07-26T00:29:53.664Z,99484.97
2022-07-26T00:32:21.946Z,99489.63
2022-07-26T00:34:51.898Z,99483.78
2022-07-26T00:37:21.120Z,99477.78
2022-07-26T00:39:49.860Z,99479.97
2022-07-26T00:42:17.826Z,99479.59
2022-07-26T00:44:46.520Z,99479.81
2022-07-26T00:47:15.451Z,99468.22
2022-07-26T00:49:44.190Z,99479.34
2022-07-26T00:52:13.303Z,99484.69
2022-07-26T00:54:46.935Z,99483.37
2022-07-26T00:57:15.461Z,99484.97
2022-07-26T00:59:43.921Z,99472.94
2022-07-26T01:02:12.111Z,99478.38
2022-07-26T01:04:41.649Z,99473.94
2022-07-26T01:07:14.812Z,99478.81
2022-07-26T01:09:44.170Z,99476.59
2022-07-26T01:12:13.057Z,99482.91
2022-07-26T01:14:44.689Z,99485.81
2022-07-26T01:17:14.364Z,99483.72
2022-07-26T01:19:43.216Z,99483.72
2022-07-26T01:22:14.330Z,99485.50
2022-07-26T01:24:43.248Z,99494.34
2022-07-26T01:27:11.172Z,99498.00
2022-07-26T01:29:39.047Z,99502.50
2022-07-26T01:32:08.686Z,99496.81
2022-07-26T01:34:36.519Z,99502.25
2022-07-26T01:37:06.254Z,99494.44
2022-07-26T01:39:34.618Z,99499.16
2022-07-26T01:42:02.495Z,99503.72
2022-07-26T01:44:33.097Z,99504.59
2022-07-26T01:47:01.410Z,99504.03
2022-07-26T01:49:29.244Z,99503.78
2022-07-26T01:51:57.122Z,99508.03
2022-07-26T01:54:25.559Z,99516.62
2022-07-26T01:56:53.856Z,99515.25
2022-07-26T01:59:21.831Z,99518.56
2022-07-26T02:01:50.175Z,99516.06
2022-07-26T02:04:36.766Z,99508.69
2022-07-26T02:07:05.318Z,99507.47
2022-07-26T02:09:39.572Z,99508.50
2022-07-26T02:12:08.630Z,99506.91
2022-07-26T02:14:36.635Z,99514.88
2022-07-26T02:17:05.166Z,99512.16
2022-07-26T02:19:33.578Z,99507.41
2022-07-26T02:22:01.505Z,99505.06
2022-07-26T02:24:29.824Z,99513.41
2022-07-26T02:26:59.214Z,99515.19
2022-07-26T02:29:28.072Z,99514.34
2022-07-26T02:31:56.644Z,99515.84
2022-07-26T02:34:24.802Z,99511.97
2022-07-26T02:36:53.332Z,99517.41
2022-07-26T02:39:21.811Z,99525.19
2022-07-26T02:41:49.847Z,99516.31
2022-07-26T02:44:17.633Z,99521.53
2022-07-26T02:46:45.894Z,99520.69
2022-07-26T02:49:13.847Z,99522.03
2022-07-26T02:51:41.691Z,99522.66
2022-07-26T02:54:10.546Z,99523.13
2022-07-26T02:56:39.106Z,99521.13
2022-07-26T02:59:07.828Z,99523.31
2022-07-26T03:01:36.231Z,99514.50
2022-07-26T03:04:04.299Z,99527.94
2022-07-26T03:06:32.312Z,99536.91
2022-07-26T03:09:00.847Z,99531.22
2022-07-26T03:11:28.849Z,99532.97
2022-07-26T03:13:56.791Z,99535.00
2022-07-26T03:16:29.374Z,99539.94
2022-07-26T03:18:58.157Z,99538.22
2022-07-26T03:21:26.533Z,99537.25
2022-07-26T03:23:54.462Z,99543.53
2022-07-26T03:26:23.822Z,99541.66
2022-07-26T03:28:52.084Z,99541.81
2022-07-26T03:31:20.154Z,99550.59
2022-07-26T03:33:48.199Z,99554.94
2022-07-26T03:36:16.467Z,99553.97
2022-07-26T03:38:44.294Z,99551.47
2022-07-26T03:41:13.512Z,99557.78
2022-07-26T03:43:42.306Z,99537.72
2022-07-26T03:46:10.310Z,99536.34
2022-07-26T03:48:38.473Z,99550.38
2022-07-26T03:51:06.886Z,99554.72
2022-07-26T03:53:34.956Z,99548.78
2022-07-26T03:56:24.514Z,99549.59
2022-07-26T03:58:52.716Z,99549.38
2022-07-26T04:01:20.773Z,99549.59
2022-07-26T04:03:49.049Z,99547.12
2022-07-26T04:06:18.319Z,99538.88
2022-07-26T04:08:51.413Z,99541.91
2022-07-26T04:11:19.347Z,99546.63
2022-07-26T04:13:47.314Z,99543.06
2022-07-26T04:16:15.591Z,99541.50
2022-07-26T04:18:43.562Z,99541.25
2022-07-26T04:21:11.592Z,99543.78
2022-07-26T04:23:39.899Z,99543.91
2022-07-26T04:26:07.811Z,99545.84
2022-07-26T04:28:35.803Z,99546.69
2022-07-26T04:31:04.097Z,99553.31
2022-07-26T04:36:20.108Z,99549.72
2022-07-26T04:38:48.095Z,99549.41
2022-07-26T04:41:15.973Z,99556.50
2022-07-26T04:46:29.609Z,99535.87
2022-07-26T04:48:58.102Z,99541.63
2022-07-26T04:51:26.811Z,99537.63
2022-07-26T04:53:54.706Z,99548.78
2022-07-26T04:56:22.978Z,99550.03
2022-07-26T04:58:50.799Z,99548.38
2022-07-26T05:01:18.688Z,99548.84
2022-07-26T05:03:46.950Z,99536.81
2022-07-26T05:06:14.936Z,99554.34
2022-07-26T05:08:43.682Z,99548.50
2022-07-26T05:11:12.040Z,99546.16
2022-07-26T05:13:39.986Z,99549.75
2022-07-26T05:16:11.716Z,99551.13
2022-07-26T05:18:48.953Z,99551.72
2022-07-26T05:21:18.950Z,99553.69
2022-07-26T05:23:47.255Z,99552.41
2022-07-26T05:26:15.599Z,99542.91
2022-07-26T05:28:46.347Z,99551.41
2022-07-26T05:31:14.720Z,99541.28
2022-07-26T05:33:42.621Z,99541.94
2022-07-26T05:36:10.697Z,99536.66
2022-07-26T05:38:39.366Z,99535.13
2022-07-26T05:41:07.584Z,99527.38
2022-07-26T05:43:40.702Z,99530.91
2022-07-26T05:46:11.024Z,99525.47
2022-07-26T05:48:40.326Z,99528.19
2022-07-26T05:51:09.260Z,99527.28
2022-07-26T05:53:38.201Z,99520.75
2022-07-26T05:56:06.756Z,99524.50
2022-07-26T05:58:35.006Z,99520.94
2022-07-26T06:01:03.377Z,99514.63
2022-07-26T06:03:32.679Z,99514.97
2022-07-26T06:06:00.560Z,99519.06
2022-07-26T06:08:28.749Z,99517.19
2022-07-26T06:10:57.517Z,99515.50
2022-07-26T06:13:25.458Z,99504.69
2022-07-26T06:15:53.605Z,99517.84
2022-07-26T06:18:24.554Z,99519.13
2022-07-26T06:20:52.815Z,99521.13
2022-07-26T06:23:33.811Z,99515.66
2022-07-26T06:26:04.819Z,99519.19
2022-07-26T06:28:33.383Z,99526.50
2022-07-26T06:31:01.602Z,99531.88
2022-07-26T06:33:29.754Z,99508.50
2022-07-26T06:35:58.035Z,99521.56
2022-07-26T06:38:26.012Z,99518.84
2022-07-26T06:40:54.200Z,99507.09
2022-07-26T06:43:22.526Z,99514.78
2022-07-26T06:45:52.650Z,99520.37
2022-07-26T06:48:20.606Z,99516.88
2022-07-26T06:50:49.042Z,99521.19
2022-07-26T06:53:17.015Z,99527.75
2022-07-26T06:55:45.017Z,99514.47
2022-07-26T06:58:14.203Z,99514.41
2022-07-26T07:00:42.250Z,99499.31
2022-07-26T07:03:10.235Z,99504.78
2022-07-26T07:05:38.531Z,99512.69
2022-07-26T07:08:07.292Z,99504.13
2022-07-26T07:10:35.698Z,99502.78
2022-07-26T07:13:04.436Z,99499.88
2022-07-26T07:15:32.349Z,99502.06
2022-07-26T07:18:00.229Z,99499.22
2022-07-26T07:20:28.754Z,99503.00
2022-07-26T07:22:56.676Z,99504.25
2022-07-26T07:25:30.310Z,99498.69
2022-07-26T07:27:59.877Z,99502.78
2022-07-26T07:30:33.790Z,99502.34
2022-07-26T07:33:02.085Z,99508.56
2022-07-26T07:35:50.646Z,99498.69
2022-07-26T07:38:19.064Z,99510.12
2022-07-26T07:40:47.179Z,99504.41
2022-07-26T07:43:15.032Z,99512.47
2022-07-26T07:45:43.465Z,99510.97
2022-07-26T07:48:16.268Z,99513.28
2022-07-26T07:51:02.808Z,99509.31
2022-07-26T07:53:30.658Z,99508.63
2022-07-26T07:55:59.578Z,99507.53
2022-07-26T07:58:28.141Z,99499.13
2022-07-26T08:03:41.869Z,99512.75
2022-07-26T08:06:10.743Z,99511.25
2022-07-26T08:08:38.934Z,99509.56
2022-07-26T08:11:07.958Z,99516.69
2022-07-26T08:13:36.225Z,99516.47
2022-07-26T08:16:06.220Z,99517.34
2022-07-26T08:18:42.060Z,99522.53
2022-07-26T08:21:21.417Z,99536.72
2022-07-26T08:23:50.028Z,99523.28
2022-07-26T08:26:18.003Z,99515.84
2022-07-26T08:28:47.939Z,99532.41
2022-07-26T08:31:17.518Z,99530.69
2022-07-26T08:33:45.863Z,99518.28
2022-07-26T08:36:18.264Z,99519.13
2022-07-26T08:38:47.790Z,99532.06
2022-07-26T08:41:18.594Z,99545.88
2022-07-26T08:43:51.898Z,99546.19
2022-07-26T08:46:25.968Z,99551.59
2022-07-26T08:48:58.599Z,99530.94
2022-07-26T08:51:27.228Z,99529.94
2022-07-26T08:54:04.031Z,99534.72
2022-07-26T08:56:35.347Z,99531.31
2022-07-26T08:59:19.573Z,99523.84
2022-07-26T09:01:51.895Z,99520.78
2022-07-26T09:04:43.224Z,99524.12
2022-07-26T09:07:13.369Z,99521.34
2022-07-26T09:10:06.052Z,99530.44
2022-07-26T09:12:34.158Z,99537.13
2022-07-26T09:15:04.846Z,99531.84
2022-07-26T09:17:44.372Z,99538.38
2022-07-26T09:20:15.951Z,99541.72
2022-07-26T09:23:02.604Z,99541.75
2022-07-26T09:25:39.997Z,99534.16
2022-07-26T09:28:29.923Z,99528.37
2022-07-26T09:31:05.451Z,99518.78
2022-07-26T09:33:47.162Z,99534.38
2022-07-26T09:36:16.583Z,99520.72
2022-07-26T09:38:49.226Z,99529.63
2022-07-26T09:41:22.415Z,99518.03
2022-07-26T09:43:53.976Z,99509.66
2022-07-26T09:46:26.574Z,99521.53
2022-07-26T09:49:13.880Z,99533.53
2022-07-26T09:51:45.050Z,99531.28
2022-07-26T09:54:18.332Z,99521.47
2022-07-26T09:56:52.123Z,99529.84
2022-07-26T09:59:22.146Z,99538.53
2022-07-26T10:01:53.184Z,99531.62
2022-07-26T10:04:22.477Z,99522.56
2022-07-26T10:06:50.551Z,99510.69
2022-07-26T10:09:19.585Z,99505.81
2022-07-26T10:12:06.129Z,99521.50
2022-07-26T10:14:33.977Z,99513.59
2022-07-26T10:17:34.996Z,99517.66
2022-07-26T10:20:09.220Z,99511.88
2022-07-26T10:22:45.329Z,99509.72
2022-07-26T10:25:19.109Z,99492.66
2022-07-26T10:27:53.123Z,99502.66
2022-07-26T10:30:22.858Z,99495.66
2022-07-26T10:33:02.479Z,99502.97
2022-07-26T10:35:43.803Z,99504.72
2022-07-26T10:38:27.895Z,99507.84
2022-07-26T10:41:08.183Z,99505.19
2022-07-26T10:43:41.544Z,99481.81
2022-07-26T10:46:23.629Z,99486.88
2022-07-26T10:49:21.333Z,99498.81
2022-07-26T10:52:12.199Z,99486.84
2022-07-26T10:55:05.087Z,99483.41
2022-07-26T10:57:36.302Z,99480.75
2022-07-26T11:00:25.252Z,99487.81
2022-07-26T11:02:58.717Z,99490.72
2022-07-26T11:05:31.980Z,99503.88
2022-07-26T11:08:08.334Z,99502.09
2022-07-26T11:10:47.702Z,99499.53
2022-07-26T11:13:26.413Z,99494.06
2022-07-26T11:16:03.980Z,99486.47
2022-07-26T11:18:38.039Z,99486.88
2022-07-26T11:21:24.902Z,99494.91
2022-07-26T11:23:52.815Z,99501.19
2022-07-26T11:26:23.760Z,99495.59
2022-07-26T11:28:56.249Z,99490.66
2022-07-26T11:31:50.627Z,99483.53
2022-07-26T11:34:34.412Z,99478.97
2022-07-26T11:37:05.127Z,99484.13
2022-07-26T11:39:35.749Z,99483.16
2022-07-26T11:42:16.570Z,99472.84
2022-07-26T11:44:45.887Z,99468.16
2022-07-26T11:47:24.340Z,99456.44
2022-07-26T11:52:43.791Z,99462.22
2022-07-26T11:55:11.826Z,99460.91
2022-07-26T11:57:39.747Z,99460.25
2022-07-26T12:00:08.902Z,99458.94
2022-07-26T12:02:39.282Z,99463.56
2022-07-26T12:05:21.495Z,99464.66
2022-07-26T12:08:08.885Z,99466.31
2022-07-26T12:10:37.231Z,99466.53
2022-07-26T12:13:24.759Z,99467.72
2022-07-26T12:15:54.045Z,99472.59
2022-07-26T12:18:34.324Z,99462.16
2022-07-26T12:21:07.841Z,99460.69
2022-07-26T12:23:49.163Z,99463.62
2022-07-26T12:26:22.561Z,99457.59
2022-07-26T12:28:50.587Z,99457.47
2022-07-26T12:31:33.314Z,99451.78
2022-07-26T12:34:01.539Z,99440.91
2022-07-26T12:36:34.191Z,99445.37
2022-07-26T12:39:03.299Z,99459.78
2022-07-26T12:41:36.532Z,99454.06
2022-07-26T12:44:12.083Z,99458.84
2022-07-26T12:46:41.088Z,99459.44
2022-07-26T12:49:09.050Z,99468.41
2022-07-26T12:51:37.677Z,99469.72
2022-07-26T12:54:07.081Z,99461.97
2022-07-26T12:56:35.269Z,99467.94
2022-07-26T12:59:03.686Z,99467.13
2022-07-26T13:01:32.667Z,99473.66
2022-07-26T13:04:01.025Z,99476.63
2022-07-26T13:06:29.074Z,99471.44
2022-07-26T13:08:57.467Z,99468.78
2022-07-26T13:11:25.893Z,99465.25
2022-07-26T13:13:53.877Z,99469.81
2022-07-26T13:16:22.440Z,99475.34
2022-07-26T13:18:50.303Z,99475.41
2022-07-26T13:21:18.324Z,99461.91
2022-07-26T13:23:46.617Z,99456.34
2022-07-26T13:26:14.524Z,99452.25
2022-07-26T13:28:42.767Z,99453.06
2022-07-26T13:31:13.101Z,99458.31
2022-07-26T13:33:41.777Z,99455.41
2022-07-26T13:36:10.281Z,99463.66
2022-07-26T13:38:58.444Z,99468.69
2022-07-26T13:41:26.968Z,99479.03
2022-07-26T13:43:58.523Z,99474.50
2022-07-26T13:46:33.700Z,99484.22
2022-07-26T13:52:00.195Z,99481.88
2022-07-26T13:54:46.752Z,99483.06
2022-07-26T13:57:14.677Z,99488.69
2022-07-26T13:59:43.316Z,99492.81
2022-07-26T14:02:11.449Z,99482.47
2022-07-26T14:04:39.889Z,99472.50
2022-07-26T14:07:07.798Z,99472.66
2022-07-26T14:09:35.846Z,99473.81
2022-07-26T14:12:04.580Z,99473.00
2022-07-26T14:14:33.166Z,99468.81
2022-07-26T14:17:01.111Z,99466.19
2022-07-26T14:19:29.437Z,99472.09
2022-07-26T14:21:59.317Z,99482.00
2022-07-26T14:24:29.396Z,99474.19
2022-07-26T14:26:59.525Z,99481.09
2022-07-26T14:29:29.816Z,99482.00
2022-07-26T14:31:58.297Z,99481.09
2022-07-26T14:34:26.304Z,99490.34
2022-07-26T14:39:44.687Z,99492.19
2022-07-26T14:42:18.854Z,99500.06
2022-07-26T14:44:48.059Z,99506.41
2022-07-26T14:47:16.397Z,99504.91
2022-07-26T14:49:47.696Z,99510.41
2022-07-26T14:52:16.710Z,99509.25
2022-07-26T14:54:44.657Z,99512.75
2022-07-26T14:57:12.723Z,99497.47
2022-07-26T14:59:41.057Z,99510.97
2022-07-26T15:02:11.344Z,99515.44
2022-07-26T15:04:39.324Z,99523.06
2022-07-26T15:07:07.593Z,99509.88
2022-07-26T15:09:35.513Z,99516.31
2022-07-26T15:12:03.495Z,99518.81
2022-07-26T15:14:31.689Z,99519.53
2022-07-26T15:16:59.683Z,99519.66
2022-07-26T15:19:27.755Z,99524.59
2022-07-26T15:21:56.135Z,99522.56
2022-07-26T15:24:24.525Z,99520.84
2022-07-26T15:26:52.522Z,99518.13
2022-07-26T15:29:20.816Z,99521.84
2022-07-26T15:31:49.517Z,99520.09
2022-07-26T15:34:17.602Z,99515.19
2022-07-26T15:36:45.856Z,99520.72
2022-07-26T15:39:17.215Z,99517.97
2022-07-26T15:41:49.815Z,99521.72
2022-07-26T15:44:19.748Z,99519.91
2022-07-26T15:46:49.949Z,99523.50
2022-07-26T15:49:18.613Z,99525.97
2022-07-26T15:51:46.655Z,99532.66
2022-07-26T15:54:16.310Z,99537.56
2022-07-26T15:56:44.764Z,99537.53
2022-07-26T15:59:12.959Z,99532.44
2022-07-26T16:01:41.314Z,99530.41
2022-07-26T16:04:09.914Z,99532.38
2022-07-26T16:06:38.391Z,99525.34
2022-07-26T16:09:18.656Z,99523.31
2022-07-26T16:11:49.162Z,99523.53
2022-07-26T16:14:17.705Z,99536.13
2022-07-26T16:16:46.231Z,99537.63
2022-07-26T16:19:15.160Z,99532.50
2022-07-26T16:21:43.459Z,99532.88
2022-07-26T16:24:11.418Z,99536.37
2022-07-26T16:26:40.170Z,99533.94
2022-07-26T16:29:08.886Z,99547.34
2022-07-26T16:31:37.512Z,99543.47
2022-07-26T16:34:05.933Z,99548.53
2022-07-26T16:36:34.385Z,99558.69
2022-07-26T16:39:02.503Z,99552.34
2022-07-26T16:41:31.312Z,99564.72
2022-07-26T16:43:59.254Z,99566.16
2022-07-26T16:46:27.307Z,99570.12
2022-07-26T16:48:55.695Z,99571.56
2022-07-26T16:51:23.631Z,99575.75
2022-07-26T16:53:54.140Z,99582.03
2022-07-26T16:56:22.442Z,99579.84
2022-07-26T16:58:50.384Z,99578.53
2022-07-26T17:01:18.307Z,99588.59
2022-07-26T17:04:05.238Z,99589.78
2022-07-26T17:06:33.112Z,99592.94
2022-07-26T17:09:01.477Z,99592.09
2022-07-26T17:11:29.492Z,99590.91
2022-07-26T17:13:58.051Z,99600.38
2022-07-26T17:16:26.752Z,99598.00
2022-07-26T17:18:55.540Z,99596.28
2022-07-26T17:21:23.947Z,99603.78
2022-07-26T17:23:52.422Z,99608.62
2022-07-26T17:29:06.604Z,99614.41
2022-07-26T17:31:34.487Z,99627.75
2022-07-26T17:34:02.515Z,99629.13
2022-07-26T17:36:31.961Z,99635.69
2022-07-26T17:39:08.006Z,99632.47
2022-07-26T17:41:36.425Z,99639.53
2022-07-26T17:44:04.508Z,99644.50
2022-07-26T17:46:35.548Z,99641.69
2022-07-26T17:49:03.908Z,99647.09
2022-07-26T17:51:31.887Z,99641.72
2022-07-26T17:53:59.752Z,99643.47
2022-07-26T17:56:28.324Z,99636.78
2022-07-26T17:58:56.650Z,99636.63
2022-07-26T18:01:26.240Z,99637.19
2022-07-26T18:03:54.580Z,99634.22
2022-07-26T18:06:22.500Z,99629.44
2022-07-26T18:08:50.542Z,99630.81
2022-07-26T18:11:18.834Z,99616.12
2022-07-26T18:13:46.695Z,99625.41
2022-07-26T18:16:14.774Z,99632.47
2022-07-26T18:19:02.149Z,99631.28
2022-07-26T18:21:30.493Z,99634.69
2022-07-26T18:24:15.844Z,99630.47
2022-07-26T18:26:44.733Z,99632.69
2022-07-26T18:29:15.397Z,99650.41
2022-07-26T18:31:43.505Z,99647.09
2022-07-26T18:34:11.483Z,99637.97
2022-07-26T18:36:39.725Z,99644.66
2022-07-26T18:39:07.909Z,99642.25
2022-07-26T18:41:36.001Z,99641.50
2022-07-26T18:44:04.422Z,99641.91
2022-07-26T18:46:32.648Z,99646.78
2022-07-26T18:51:49.821Z,99645.28
2022-07-26T18:54:19.491Z,99645.13
2022-07-26T18:56:47.840Z,99646.97
2022-07-26T18:59:15.704Z,99653.62
2022-07-26T19:01:43.712Z,99656.13
2022-07-26T19:04:12.074Z,99645.59
2022-07-26T19:06:40.332Z,99655.81
2022-07-26T19:09:08.578Z,99648.97
2022-07-26T19:11:37.957Z,99652.38
2022-07-26T19:14:05.871Z,99659.31
2022-07-26T19:16:33.928Z,99664.91
2022-07-26T19:19:02.564Z,99660.22
2022-07-26T19:21:30.512Z,99671.38
2022-07-26T19:23:58.367Z,99660.88
2022-07-26T19:26:27.818Z,99665.41
2022-07-26T19:28:56.003Z,99657.31
2022-07-26T19:31:24.233Z,99655.66
2022-07-26T19:33:52.742Z,99652.75
2022-07-26T19:36:25.904Z,99646.41
2022-07-26T19:38:57.006Z,99647.69
2022-07-26T19:41:25.495Z,99637.09
2022-07-26T19:43:53.492Z,99637.88
2022-07-26T19:46:22.153Z,99640.31
2022-07-26T19:48:50.323Z,99640.66
2022-07-26T19:51:18.303Z,99638.00
2022-07-26T19:53:46.613Z,99638.94
2022-07-26T19:56:14.721Z,99639.31
2022-07-26T19:58:42.680Z,99632.41
2022-07-26T20:01:10.947Z,99630.72
2022-07-26T20:03:39.402Z,99627.84
2022-07-26T20:06:07.443Z,99631.06
2022-07-26T20:08:35.450Z,99632.09
2022-07-26T20:11:03.753Z,99634.59
2022-07-26T20:13:31.685Z,99636.59
2022-07-26T20:16:00.241Z,99645.81
2022-07-26T20:18:31.057Z,99635.06
2022-07-26T20:20:58.967Z,99640.59
2022-07-26T20:23:29.118Z,99647.59
2022-07-26T20:25:57.524Z,99641.78
2022-07-26T20:28:26.041Z,99648.38
2022-07-26T20:30:55.324Z,99636.88
2022-07-26T20:33:25.636Z,99644.53
2022-07-26T20:35:55.200Z,99638.13
2022-07-26T20:38:23.868Z,99637.06
2022-07-26T20:40:52.751Z,99640.16
2022-07-26T20:43:22.723Z,99634.19
2022-07-26T20:45:51.284Z,99635.69
2022-07-26T20:48:19.247Z,99643.22
2022-07-26T20:50:47.233Z,99639.53
2022-07-26T20:53:15.589Z,99639.78
2022-07-26T20:55:43.526Z,99637.38
2022-07-26T20:58:13.927Z,99641.41
2022-07-26T21:00:42.387Z,99635.84
2022-07-26T21:03:10.514Z,99648.59
2022-07-26T21:05:38.598Z,99642.78
2022-07-26T21:08:07.017Z,99656.66
2022-07-26T21:10:35.020Z,99657.56
2022-07-26T21:13:02.934Z,99651.28
2022-07-26T21:15:31.898Z,99650.37
2022-07-26T21:17:59.815Z,99652.22
2022-07-26T21:20:27.797Z,99653.47
2022-07-26T21:23:08.185Z,99650.03
2022-07-26T21:25:41.007Z,99643.16
2022-07-26T21:28:09.312Z,99646.44
2022-07-26T21:30:37.242Z,99646.56
2022-07-26T21:33:05.450Z,99642.09
2022-07-26T21:35:33.723Z,99640.22
2022-07-26T21:38:01.658Z,99643.47
2022-07-26T21:40:29.790Z,99631.97
2022-07-26T21:42:58.038Z,99638.91
2022-07-26T21:45:26.110Z,99647.59
2022-07-26T21:47:56.908Z,99651.06
2022-07-26T21:50:25.231Z,99656.03
2022-07-26T21:52:53.239Z,99659.97
2022-07-26T21:55:21.269Z,99678.84
2022-07-26T21:57:49.604Z,99676.22
2022-07-26T22:00:18.160Z,99677.78
2022-07-26T22:02:46.439Z,99672.75
2022-07-26T22:05:33.101Z,99682.75
2022-07-26T22:08:02.678Z,99674.59
2022-07-26T22:10:30.540Z,99673.47
2022-07-26T22:12:58.375Z,99664.78
2022-07-26T22:15:26.591Z,99659.75
2022-07-26T22:18:00.501Z,99670.31
2022-07-26T22:20:33.597Z,99670.03
2022-07-26T22:23:02.755Z,99673.19
2022-07-26T22:25:32.513Z,99669.50
2022-07-26T22:28:01.350Z,99663.63
2022-07-26T22:30:29.974Z,99663.69
2022-07-26T22:32:59.622Z,99661.97
2022-07-26T22:35:34.964Z,99667.47
2022-07-26T22:38:07.822Z,99667.84
2022-07-26T22:40:36.301Z,99679.22
2022-07-26T22:43:08.031Z,99678.22
2022-07-26T22:45:37.116Z,99668.84
2022-07-26T22:48:06.751Z,99664.56
2022-07-26T22:50:34.609Z,99671.44
2022-07-26T22:53:02.537Z,99669.50
2022-07-26T22:55:32.050Z,99670.69
2022-07-26T22:58:00.018Z,99674.91
2022-07-26T23:00:28.165Z,99673.91
2022-07-26T23:02:56.663Z,99674.56
2022-07-26T23:05:46.036Z,99664.59
2022-07-26T23:08:44.219Z,99667.00
2022-07-26T23:11:01.460Z,99661.47
2022-07-26T23:13:29.857Z,99666.81
2022-07-26T23:16:00.780Z,99677.88
2022-07-26T23:18:31.160Z,99674.09
2022-07-26T23:20:59.181Z,99679.97
2022-07-26T23:23:29.077Z,99690.09
2022-07-26T23:25:59.777Z,99686.28
2022-07-26T23:28:37.430Z,99696.25
2022-07-26T23:31:11.517Z,99692.22
2022-07-26T23:33:50.705Z,99697.88
2022-07-26T23:36:24.005Z,99692.53
2022-07-26T23:38:52.262Z,99698.03
2022-07-26T23:41:20.409Z,99696.69
2022-07-26T23:43:49.223Z,99702.56
2022-07-26T23:46:19.506Z,99702.66
2022-07-26T23:48:47.852Z,99698.97
2022-07-26T23:51:16.137Z,99692.00
2022-07-26T23:53:44.130Z,99685.19
2022-07-26T23:56:12.410Z,99689.34
2022-07-26T23:58:40.686Z,99691.47
